createdAt,value
2018-04-10T00:02:14.187Z,15.00
2018-04-10T00:04:41.659Z,15.00
2018-04-10T00:07:09.113Z,14.90
2018-04-10T00:09:36.571Z,14.90
2018-04-10T00:12:04.678Z,14.90
2018-04-10T00:14:32.890Z,14.80
2018-04-10T00:17:00.339Z,14.80
2018-04-10T00:19:28.552Z,14.80
2018-04-10T00:21:56.006Z,14.70
2018-04-10T00:24:23.454Z,14.80
2018-04-10T00:26:50.898Z,14.70
2018-04-10T00:29:18.339Z,14.70
2018-04-10T00:31:45.789Z,14.60
2018-04-10T00:34:13.230Z,14.60
2018-04-10T00:36:40.709Z,14.60
2018-04-10T00:39:08.175Z,14.50
2018-04-10T00:41:35.646Z,14.50
2018-04-10T00:44:03.483Z,14.40
2018-04-10T00:46:30.923Z,14.40
2018-04-10T00:48:58.378Z,14.40
2018-04-10T00:51:25.963Z,14.30
2018-04-10T00:53:53.402Z,14.30
2018-04-10T00:56:21.131Z,14.20
2018-04-10T00:58:48.587Z,14.20
2018-04-10T01:01:16.315Z,14.20
2018-04-10T01:03:43.758Z,14.10
2018-04-10T01:06:11.214Z,14.10
2018-04-10T01:08:38.664Z,14.00
2018-04-10T01:11:06.102Z,14.00
2018-04-10T01:13:33.584Z,13.90
2018-04-10T01:16:01.822Z,13.90
2018-04-10T01:18:29.285Z,13.80
2018-04-10T01:20:57.054Z,13.90
2018-04-10T01:23:24.483Z,13.80
2018-04-10T01:25:51.944Z,13.80
2018-04-10T01:28:19.391Z,13.80
2018-04-10T01:30:46.830Z,13.80
2018-04-10T01:33:14.293Z,13.80
2018-04-10T01:35:41.722Z,13.80
2018-04-10T01:38:09.342Z,13.80
2018-04-10T01:40:36.771Z,13.80
2018-04-10T01:43:04.223Z,13.80
2018-04-10T01:45:31.703Z,13.70
2018-04-10T01:47:59.127Z,13.70
2018-04-10T01:50:26.579Z,13.70
2018-04-10T01:52:54.019Z,13.70
2018-04-10T01:55:22.590Z,13.60
2018-04-10T01:57:50.066Z,13.60
2018-04-10T02:00:17.507Z,13.60
2018-04-10T02:02:45.151Z,13.60
2018-04-10T02:05:12.791Z,13.50
2018-04-10T02:07:40.234Z,13.40
2018-04-10T02:10:25.296Z,13.40
2018-04-10T02:15:25.640Z,13.20
2018-04-10T02:17:53.239Z,13.20
2018-04-10T02:20:20.679Z,13.10
2018-04-10T02:22:48.128Z,13.10
2018-04-10T02:25:15.588Z,13.00
2018-04-10T02:27:43.032Z,12.90
2018-04-10T02:30:10.492Z,12.90
2018-04-10T02:32:37.936Z,12.80
2018-04-10T02:35:05.561Z,12.80
2018-04-10T02:37:33.011Z,12.80
2018-04-10T02:40:00.452Z,12.80
2018-04-10T02:42:27.924Z,12.80
2018-04-10T02:44:55.385Z,12.80
2018-04-10T02:47:22.856Z,12.70
2018-04-10T02:49:50.293Z,12.70
2018-04-10T02:52:18.004Z,12.60
2018-04-10T02:54:45.763Z,12.60
2018-04-10T02:57:13.199Z,12.60
2018-04-10T02:59:40.651Z,12.60
2018-04-10T03:02:08.083Z,12.60
2018-04-10T03:04:36.323Z,12.60
2018-04-10T03:07:03.829Z,12.60
2018-04-10T03:09:31.281Z,12.60
2018-04-10T03:11:58.749Z,12.60
2018-04-10T03:14:26.579Z,12.60
2018-04-10T03:16:54.015Z,12.60
2018-04-10T03:19:21.461Z,12.60
2018-04-10T03:21:48.909Z,12.60
2018-04-10T03:24:16.369Z,12.50
2018-04-10T03:26:43.799Z,12.50
2018-04-10T03:29:11.240Z,12.50
2018-04-10T03:31:38.713Z,12.40
2018-04-10T03:34:06.159Z,12.40
2018-04-10T03:36:33.635Z,12.40
2018-04-10T03:39:01.065Z,12.40
2018-04-10T03:41:28.585Z,12.40
2018-04-10T03:43:56.044Z,12.50
2018-04-10T03:46:23.488Z,12.50
2018-04-10T03:48:50.964Z,12.60
2018-04-10T03:51:18.433Z,12.60
2018-04-10T03:53:45.895Z,12.70
2018-04-10T03:56:16.754Z,12.70
2018-04-10T04:01:17.041Z,12.70
2018-04-10T04:03:44.496Z,12.70
2018-04-10T04:06:11.943Z,12.70
2018-04-10T04:08:40.334Z,12.70
2018-04-10T04:11:07.757Z,12.80
2018-04-10T04:13:35.217Z,12.80
2018-04-10T04:16:02.716Z,12.80
2018-04-10T04:18:42.172Z,12.80
2018-04-10T04:21:21.548Z,12.80
2018-04-10T04:23:49.012Z,12.90
2018-04-10T04:26:16.448Z,12.90
2018-04-10T04:28:43.886Z,12.90
2018-04-10T04:31:11.340Z,12.90
2018-04-10T04:33:41.559Z,13.00
2018-04-10T04:36:09.148Z,13.00
2018-04-10T04:38:36.592Z,13.00
2018-04-10T04:41:04.043Z,12.90
2018-04-10T04:43:31.520Z,12.90
2018-04-10T04:45:59.499Z,12.80
2018-04-10T04:48:26.961Z,12.80
2018-04-10T04:50:54.540Z,12.70
2018-04-10T04:53:21.979Z,12.60
2018-04-10T04:55:49.483Z,12.50
2018-04-10T04:58:16.939Z,12.50
2018-04-10T05:00:44.421Z,12.40
2018-04-10T05:03:11.872Z,12.30
2018-04-10T05:05:39.319Z,12.20
2018-04-10T05:08:08.621Z,12.10
2018-04-10T05:10:36.063Z,12.10
2018-04-10T05:13:03.527Z,12.20
2018-04-10T05:15:31.033Z,12.20
2018-04-10T05:17:58.681Z,12.30
2018-04-10T05:20:26.143Z,12.30
2018-04-10T05:22:53.633Z,12.30
2018-04-10T05:25:21.069Z,12.30
2018-04-10T05:27:48.595Z,12.40
2018-04-10T05:30:16.036Z,12.40
2018-04-10T05:32:43.491Z,12.50
2018-04-10T05:35:10.958Z,12.60
2018-04-10T05:37:38.391Z,12.60
2018-04-10T05:40:05.920Z,12.60
2018-04-10T05:42:33.354Z,12.60
2018-04-10T05:45:00.812Z,12.70
2018-04-10T05:47:28.255Z,12.70
2018-04-10T05:49:55.736Z,12.70
2018-04-10T05:52:23.191Z,12.70
2018-04-10T05:54:50.634Z,12.80
2018-04-10T05:57:18.086Z,12.80
2018-04-10T05:59:45.547Z,12.80
2018-04-10T06:02:12.988Z,12.90
2018-04-10T06:04:40.448Z,13.00
2018-04-10T06:07:07.898Z,13.00
2018-04-10T06:09:35.363Z,13.10
2018-04-10T06:12:02.845Z,13.10
2018-04-10T06:14:30.300Z,13.10
2018-04-10T06:16:58.539Z,13.20
2018-04-10T06:19:25.999Z,13.10
2018-04-10T06:21:53.470Z,13.20
2018-04-10T06:24:20.931Z,13.20
2018-04-10T06:26:48.386Z,13.30
2018-04-10T06:29:15.861Z,13.30
2018-04-10T06:31:43.305Z,13.40
2018-04-10T06:34:10.778Z,13.40
2018-04-10T06:36:38.455Z,13.50
2018-04-10T06:39:05.999Z,13.60
2018-04-10T06:41:33.486Z,13.70
2018-04-10T06:44:00.936Z,13.70
2018-04-10T06:46:28.400Z,13.70
2018-04-10T06:48:55.844Z,13.80
2018-04-10T06:51:23.278Z,13.80
2018-04-10T06:53:50.759Z,13.90
2018-04-10T06:56:18.207Z,13.90
2018-04-10T06:58:45.663Z,13.90
2018-04-10T07:01:13.375Z,13.90
2018-04-10T07:03:41.592Z,13.90
2018-04-10T07:06:09.811Z,13.90
2018-04-10T07:08:37.258Z,13.90
2018-04-10T07:11:04.723Z,13.90
2018-04-10T07:13:32.170Z,13.90
2018-04-10T07:15:59.620Z,13.90
2018-04-10T07:18:27.084Z,14.00
2018-04-10T07:20:54.585Z,14.00
2018-04-10T07:23:22.012Z,14.10
2018-04-10T07:25:49.486Z,14.10
2018-04-10T07:28:16.931Z,14.10
2018-04-10T07:30:44.395Z,14.20
2018-04-10T07:33:11.870Z,14.20
2018-04-10T07:35:39.336Z,14.20
2018-04-10T07:38:06.773Z,14.20
2018-04-10T07:40:34.217Z,14.20
2018-04-10T07:43:01.843Z,14.30
2018-04-10T07:45:29.290Z,14.30
2018-04-10T07:47:56.754Z,14.30
2018-04-10T07:50:24.202Z,14.40
2018-04-10T07:52:51.912Z,14.40
2018-04-10T07:55:19.374Z,14.40
2018-04-10T07:57:46.815Z,14.50
2018-04-10T08:00:14.402Z,14.60
2018-04-10T08:02:42.264Z,14.60
2018-04-10T08:05:09.811Z,14.60
2018-04-10T08:07:37.280Z,14.60
2018-04-10T08:10:04.718Z,14.60
2018-04-10T08:12:32.178Z,14.70
2018-04-10T08:14:59.636Z,14.80
2018-04-10T08:17:27.119Z,14.90
2018-04-10T08:19:54.567Z,15.00
2018-04-10T08:22:22.006Z,15.00
2018-04-10T08:24:49.472Z,15.10
2018-04-10T08:27:16.915Z,15.20
2018-04-10T08:29:44.351Z,15.30
2018-04-10T08:32:12.766Z,15.40
2018-04-10T08:34:40.210Z,15.50
2018-04-10T08:37:08.451Z,16.00
2018-04-10T08:39:35.887Z,16.00
2018-04-10T08:42:03.363Z,16.30
2018-04-10T08:44:30.815Z,16.50
2018-04-10T08:46:58.383Z,16.60
2018-04-10T08:49:25.835Z,16.80
2018-04-10T08:51:53.451Z,17.10
2018-04-10T08:54:20.983Z,17.30
2018-04-10T08:56:48.459Z,17.50
2018-04-10T08:59:15.984Z,17.60
2018-04-10T09:01:43.459Z,17.70
2018-04-10T09:04:10.913Z,17.80
2018-04-10T09:06:38.364Z,17.90
2018-04-10T09:09:05.807Z,18.20
2018-04-10T09:11:33.272Z,18.60
2018-04-10T09:14:00.740Z,18.90
2018-04-10T09:16:28.191Z,19.20
2018-04-10T09:18:55.806Z,19.30
2018-04-10T09:21:23.363Z,19.70
2018-04-10T09:23:50.816Z,19.90
2018-04-10T09:26:18.274Z,20.20
2018-04-10T09:28:45.727Z,20.50
2018-04-10T09:31:13.272Z,20.80
2018-04-10T09:33:42.081Z,21.10
2018-04-10T09:36:09.568Z,21.30
2018-04-10T09:38:37.041Z,21.70
2018-04-10T09:41:04.486Z,22.00
2018-04-10T09:43:31.960Z,22.00
2018-04-10T09:45:59.407Z,22.00
2018-04-10T09:48:26.875Z,22.00
2018-04-10T09:50:54.358Z,22.00
2018-04-10T09:53:22.095Z,22.20
2018-04-10T09:55:49.562Z,22.30
2018-04-10T09:58:17.015Z,22.30
2018-04-10T10:00:44.459Z,22.20
2018-04-10T10:03:11.910Z,22.10
2018-04-10T10:05:39.347Z,22.00
2018-04-10T10:08:06.824Z,22.10
2018-04-10T10:10:34.348Z,22.20
2018-04-10T10:13:02.123Z,22.30
2018-04-10T10:15:29.572Z,22.60
2018-04-10T10:17:57.151Z,22.90
2018-04-10T10:20:24.598Z,23.10
2018-04-10T10:22:52.069Z,23.30
2018-04-10T10:25:19.515Z,23.40
2018-04-10T10:27:46.995Z,23.50
2018-04-10T10:30:14.440Z,23.90
2018-04-10T10:32:41.900Z,24.00
2018-04-10T10:35:09.548Z,24.10
2018-04-10T10:37:37.623Z,24.40
2018-04-10T10:40:05.071Z,24.60
2018-04-10T10:42:32.522Z,24.50
2018-04-10T10:44:59.959Z,24.40
2018-04-10T10:47:27.411Z,24.30
2018-04-10T10:49:55.628Z,24.90
2018-04-10T10:52:23.078Z,24.80
2018-04-10T10:54:50.519Z,25.10
2018-04-10T10:57:17.966Z,25.30
2018-04-10T10:59:45.427Z,25.40
2018-04-10T11:02:12.863Z,25.70
2018-04-10T11:04:40.314Z,26.20
2018-04-10T11:07:07.801Z,26.10
2018-04-10T11:09:35.280Z,26.20
2018-04-10T11:12:02.715Z,26.20
2018-04-10T11:14:30.160Z,26.50
2018-04-10T11:16:57.718Z,26.90
2018-04-10T11:19:25.163Z,27.10
2018-04-10T11:21:52.624Z,27.10
2018-04-10T11:24:20.123Z,27.40
2018-04-10T11:26:48.324Z,27.60
2018-04-10T11:29:16.545Z,27.80
2018-04-10T11:31:44.009Z,27.70
2018-04-10T11:34:11.624Z,27.90
2018-04-10T11:36:39.089Z,27.70
2018-04-10T11:39:06.629Z,27.60
2018-04-10T11:41:34.093Z,27.40
2018-04-10T11:44:01.562Z,27.30
2018-04-10T11:46:28.988Z,27.30
2018-04-10T11:48:56.453Z,27.20
2018-04-10T11:51:24.184Z,26.80
2018-04-10T11:53:51.999Z,26.80
2018-04-10T11:56:19.542Z,26.50
2018-04-10T11:58:47.330Z,26.30
2018-04-10T12:01:14.832Z,26.30
2018-04-10T12:03:43.232Z,26.30
2018-04-10T12:06:10.694Z,26.40
2018-04-10T12:08:38.146Z,26.30
2018-04-10T12:11:05.677Z,26.50
2018-04-10T12:13:33.144Z,26.80
2018-04-10T12:16:00.594Z,27.00
2018-04-10T12:18:28.044Z,27.00
2018-04-10T12:20:56.022Z,26.90
2018-04-10T12:23:23.508Z,27.10
2018-04-10T12:25:51.038Z,27.20
2018-04-10T12:28:18.524Z,27.20
2018-04-10T12:30:45.955Z,27.40
2018-04-10T12:33:13.943Z,27.50
2018-04-10T12:35:41.398Z,27.80
2018-04-10T12:38:08.959Z,28.00
2018-04-10T12:40:36.455Z,28.30
2018-04-10T12:43:03.934Z,28.40
2018-04-10T12:45:31.367Z,28.50
2018-04-10T12:47:58.915Z,28.70
2018-04-10T12:50:26.372Z,28.80
2018-04-10T12:52:53.811Z,28.90
2018-04-10T12:55:21.399Z,29.20
2018-04-10T12:57:48.840Z,29.50
2018-04-10T13:00:16.291Z,29.70
2018-04-10T13:02:43.747Z,30.00
2018-04-10T13:05:11.202Z,30.40
2018-04-10T13:07:38.700Z,30.70
2018-04-10T13:10:06.159Z,30.80
2018-04-10T13:12:33.604Z,30.80
2018-04-10T13:15:01.055Z,30.90
2018-04-10T13:17:28.495Z,31.00
2018-04-10T13:19:56.712Z,31.10
2018-04-10T13:22:24.155Z,31.00
2018-04-10T13:24:51.603Z,31.00
2018-04-10T13:27:19.064Z,31.00
2018-04-10T13:29:46.501Z,31.00
2018-04-10T13:32:13.969Z,30.80
2018-04-10T13:34:41.399Z,30.40
2018-04-10T13:37:08.958Z,29.90
2018-04-10T13:39:36.402Z,29.80
2018-04-10T13:42:03.836Z,29.10
2018-04-10T13:44:31.290Z,29.00
2018-04-10T13:46:59.496Z,29.50
2018-04-10T13:49:27.061Z,29.40
2018-04-10T13:51:54.491Z,30.00
2018-04-10T13:54:21.995Z,30.10
2018-04-10T13:56:49.403Z,29.90
2018-04-10T13:59:17.225Z,29.60
2018-04-10T14:01:44.663Z,29.50
2018-04-10T14:04:12.110Z,29.60
2018-04-10T14:06:40.639Z,29.80
2018-04-10T14:09:08.112Z,29.80
2018-04-10T14:11:35.564Z,29.80
2018-04-10T14:14:03.003Z,29.30
2018-04-10T14:16:30.681Z,28.80
2018-04-10T14:18:58.299Z,28.40
2018-04-10T14:21:25.901Z,28.30
2018-04-10T14:23:53.348Z,28.20
2018-04-10T14:26:20.784Z,28.20
2018-04-10T14:28:48.240Z,27.90
2018-04-10T14:31:15.690Z,27.70
2018-04-10T14:33:43.144Z,27.40
2018-04-10T14:36:10.768Z,27.10
2018-04-10T14:38:38.211Z,26.80
2018-04-10T14:41:05.669Z,26.50
2018-04-10T14:43:33.489Z,26.20
2018-04-10T14:46:00.935Z,25.70
2018-04-10T14:48:28.372Z,25.20
2018-04-10T14:50:55.818Z,24.80
2018-04-10T14:53:23.283Z,24.30
2018-04-10T14:55:50.719Z,24.00
2018-04-10T14:58:18.384Z,23.80
2018-04-10T15:00:45.931Z,23.50
2018-04-10T15:03:13.465Z,23.30
2018-04-10T15:05:40.913Z,23.00
2018-04-10T15:08:08.351Z,22.80
2018-04-10T15:10:35.859Z,22.60
2018-04-10T15:13:03.296Z,22.50
2018-04-10T15:15:30.744Z,22.20
2018-04-10T15:17:58.199Z,22.00
2018-04-10T15:20:26.427Z,21.50
2018-04-10T15:22:53.892Z,21.40
2018-04-10T15:25:21.334Z,21.40
2018-04-10T15:27:48.935Z,21.30
2018-04-10T15:30:16.407Z,21.20
2018-04-10T15:32:43.853Z,21.20
2018-04-10T15:35:11.324Z,21.10
2018-04-10T15:37:38.878Z,21.00
2018-04-10T15:40:06.339Z,20.90
2018-04-10T15:42:33.814Z,20.80
2018-04-10T15:45:01.260Z,20.60
2018-04-10T15:47:28.715Z,20.50
2018-04-10T15:49:56.159Z,20.30
2018-04-10T15:52:23.604Z,20.10
2018-04-10T15:54:51.119Z,19.90
2018-04-10T15:57:18.567Z,19.80
2018-04-10T15:59:46.020Z,19.70
2018-04-10T16:02:13.464Z,19.60
2018-04-10T16:04:40.904Z,19.60
2018-04-10T16:07:08.363Z,19.50
2018-04-10T16:09:35.800Z,19.40
2018-04-10T16:12:04.091Z,19.30
2018-04-10T16:14:31.535Z,19.20
2018-04-10T16:16:58.975Z,19.10
2018-04-10T16:19:26.620Z,19.00
2018-04-10T16:21:54.081Z,18.90
2018-04-10T16:24:21.530Z,18.80
2018-04-10T16:26:48.972Z,18.70
2018-04-10T16:29:16.981Z,18.60
2018-04-10T16:31:45.367Z,18.50
2018-04-10T16:34:12.801Z,18.30
2018-04-10T16:36:40.255Z,18.00
2018-04-10T16:39:07.730Z,17.70
2018-04-10T16:41:35.197Z,17.50
2018-04-10T16:44:02.878Z,17.40
2018-04-10T16:46:30.330Z,17.30
2018-04-10T16:48:57.847Z,17.10
2018-04-10T16:51:25.443Z,17.00
2018-04-10T16:53:52.892Z,16.80
2018-04-10T16:56:20.388Z,16.70
2018-04-10T16:58:47.787Z,16.60
2018-04-10T17:01:15.245Z,16.60
2018-04-10T17:03:42.725Z,16.40
2018-04-10T17:06:10.248Z,16.30
2018-04-10T17:08:37.777Z,16.10
2018-04-10T17:11:05.192Z,15.90
2018-04-10T17:13:32.663Z,15.80
2018-04-10T17:16:00.119Z,15.60
2018-04-10T17:18:27.583Z,15.50
2018-04-10T17:20:54.997Z,15.40
2018-04-10T17:23:22.440Z,15.30
2018-04-10T17:25:49.902Z,15.20
2018-04-10T17:28:17.346Z,15.10
2018-04-10T17:30:44.852Z,15.00
2018-04-10T17:33:12.344Z,14.90
2018-04-10T17:35:39.788Z,14.80
2018-04-10T17:38:07.851Z,14.70
2018-04-10T17:40:35.297Z,14.60
2018-04-10T17:43:02.748Z,14.50
2018-04-10T17:45:30.207Z,14.50
2018-04-10T17:47:57.915Z,14.40
2018-04-10T17:50:25.370Z,14.30
2018-04-10T17:52:53.169Z,14.10
2018-04-10T17:55:20.601Z,14.00
2018-04-10T17:57:48.352Z,14.00
2018-04-10T18:00:15.795Z,13.90
2018-04-10T18:02:43.255Z,13.80
2018-04-10T18:05:10.754Z,13.70
2018-04-10T18:07:38.200Z,13.70
2018-04-10T18:10:05.671Z,13.60
2018-04-10T18:12:33.115Z,13.60
2018-04-10T18:15:00.906Z,13.50
2018-04-10T18:17:28.380Z,13.50
2018-04-10T18:19:55.825Z,13.40
2018-04-10T18:22:23.315Z,13.30
2018-04-10T18:24:50.765Z,13.30
2018-04-10T18:27:18.212Z,13.20
2018-04-10T18:29:45.662Z,13.10
2018-04-10T18:32:13.159Z,13.00
2018-04-10T18:34:40.596Z,13.00
2018-04-10T18:37:08.048Z,12.90
2018-04-10T18:39:35.809Z,12.80
2018-04-10T18:42:03.252Z,12.80
2018-04-10T18:44:30.686Z,12.80
2018-04-10T18:46:58.144Z,12.70
2018-04-10T18:49:25.591Z,12.70
2018-04-10T18:51:53.044Z,12.70
2018-04-10T18:54:22.003Z,12.60
2018-04-10T18:56:49.448Z,12.60
2018-04-10T18:59:16.915Z,12.60
2018-04-10T19:01:44.378Z,12.60
2018-04-10T19:04:11.870Z,12.60
2018-04-10T19:06:39.308Z,12.60
2018-04-10T19:09:06.753Z,12.60
2018-04-10T19:11:34.225Z,12.50
2018-04-10T19:14:01.791Z,12.60
2018-04-10T19:16:29.381Z,12.60
2018-04-10T19:18:56.824Z,12.60
2018-04-10T19:21:24.269Z,12.60
2018-04-10T19:23:51.743Z,12.70
2018-04-10T19:26:19.453Z,12.60
2018-04-10T19:28:46.909Z,12.60
2018-04-10T19:31:14.359Z,12.60
2018-04-10T19:33:42.845Z,12.60
2018-04-10T19:36:10.304Z,12.60
2018-04-10T19:38:37.747Z,12.60
2018-04-10T19:41:05.202Z,12.60
2018-04-10T19:43:32.647Z,12.60
2018-04-10T19:46:02.081Z,12.60
2018-04-10T19:48:29.555Z,12.60
2018-04-10T19:50:56.987Z,12.60
2018-04-10T19:53:24.675Z,12.60
2018-04-10T19:55:52.116Z,12.70
2018-04-10T19:58:19.578Z,12.70
2018-04-10T20:00:47.036Z,12.70
2018-04-10T20:03:14.480Z,12.70
2018-04-10T20:05:42.163Z,12.80
2018-04-10T20:08:09.595Z,12.80
2018-04-10T20:10:37.041Z,12.80
2018-04-10T20:13:04.699Z,12.80
2018-04-10T20:15:32.140Z,12.80
2018-04-10T20:17:59.607Z,12.80
2018-04-10T20:20:27.058Z,12.80
2018-04-10T20:22:54.495Z,12.80
2018-04-10T20:25:21.959Z,12.80
2018-04-10T20:27:49.410Z,12.90
2018-04-10T20:30:16.858Z,12.90
2018-04-10T20:32:44.508Z,13.00
2018-04-10T20:35:11.935Z,12.90
2018-04-10T20:37:39.405Z,12.70
2018-04-10T20:40:08.362Z,12.30
2018-04-10T20:42:35.816Z,12.30
2018-04-10T20:45:03.261Z,12.20
2018-04-10T20:47:30.703Z,12.00
2018-04-10T20:49:58.951Z,11.90
2018-04-10T20:52:26.433Z,11.80
2018-04-10T20:54:53.875Z,11.90
2018-04-10T20:57:21.354Z,11.90
2018-04-10T20:59:48.799Z,11.90
2018-04-10T21:02:16.251Z,11.90
2018-04-10T21:04:43.699Z,11.90
2018-04-10T21:07:11.192Z,11.90
2018-04-10T21:09:38.646Z,11.90
2018-04-10T21:12:06.107Z,12.00
2018-04-10T21:14:33.564Z,12.10
2018-04-10T21:17:01.633Z,12.10
2018-04-10T21:19:29.096Z,12.00
2018-04-10T21:21:56.547Z,12.00
2018-04-10T21:24:23.999Z,12.00
2018-04-10T21:26:51.503Z,12.00
2018-04-10T21:29:19.343Z,12.10
2018-04-10T21:31:46.932Z,12.10
2018-04-10T21:34:14.364Z,12.10
2018-04-10T21:36:41.804Z,12.20
2018-04-10T21:39:09.256Z,12.20
2018-04-10T21:41:36.708Z,12.20
2018-04-10T21:44:04.433Z,12.20
2018-04-10T21:46:31.870Z,12.20
2018-04-10T21:48:59.321Z,12.20
2018-04-10T21:51:26.784Z,12.20
2018-04-10T21:53:54.233Z,12.20
2018-04-10T21:56:21.704Z,12.20
2018-04-10T21:58:49.182Z,12.20
2018-04-10T22:01:16.653Z,12.20
2018-04-10T22:03:44.102Z,12.20
2018-04-10T22:06:11.558Z,12.20
2018-04-10T22:08:39.027Z,12.20
2018-04-10T22:11:06.480Z,12.20
2018-04-10T22:13:33.933Z,12.20
2018-04-10T22:16:01.383Z,12.20
2018-04-10T22:18:28.971Z,12.20
2018-04-10T22:20:56.428Z,12.20
2018-04-10T22:23:23.867Z,12.20
2018-04-10T22:25:51.318Z,12.20
2018-04-10T22:28:18.771Z,12.10
2018-04-10T22:30:46.215Z,12.00
2018-04-10T22:33:13.627Z,11.90
2018-04-10T22:35:41.071Z,11.80
2018-04-10T22:38:08.513Z,11.70
2018-04-10T22:40:35.987Z,11.50
2018-04-10T22:43:03.451Z,11.40
2018-04-10T22:45:30.927Z,11.40
2018-04-10T22:47:58.385Z,11.30
2018-04-10T22:50:25.952Z,11.20
2018-04-10T22:52:53.419Z,11.20
2018-04-10T22:55:20.863Z,11.10
2018-04-10T22:57:48.324Z,11.10
2018-04-10T23:00:16.618Z,11.10
2018-04-10T23:02:44.069Z,11.00
2018-04-10T23:05:12.568Z,11.00
2018-04-10T23:07:40.020Z,11.00
2018-04-10T23:10:07.487Z,11.00
2018-04-10T23:12:34.943Z,11.00
2018-04-10T23:15:02.416Z,11.00
2018-04-10T23:17:29.882Z,11.00
2018-04-10T23:19:57.337Z,11.10
2018-04-10T23:22:24.788Z,11.10
2018-04-10T23:24:52.250Z,11.10
2018-04-10T23:27:19.695Z,11.20
2018-04-10T23:29:47.153Z,11.20
2018-04-10T23:32:14.611Z,11.20
2018-04-10T23:34:42.072Z,11.30
2018-04-10T23:37:09.704Z,11.30
2018-04-10T23:39:37.148Z,11.30
2018-04-10T23:42:04.621Z,11.30
2018-04-10T23:44:32.057Z,11.40
2018-04-10T23:46:59.510Z,11.40
2018-04-10T23:49:26.987Z,11.50
2018-04-10T23:51:54.451Z,11.50
2018-04-10T23:54:21.921Z,11.60
2018-04-10T23:56:49.369Z,11.60
2018-04-10T23:59:16.822Z,11.70
